East Norwich, New York
Current Conditions -  °F | °C
As of 10:53 AM on Monday 24 Nov 2014 (Local Time) from KFRG Reporting Station
Moderate Fog Moderate Fog  
Wind Chill: 62°   Ceiling: 200
Heat Index: 62°   Visibility: 0.25mi
Dew Point: 59°   Wind: 23mph
Humidity: 90%   Direction: 210°SSW
Pressure: 29.7"   Gusts: 26mph
Location:  40.85°N, 73.53°W
Report Text: KFRG 241553Z 21020G23KT 1/4SM FG OVC002 17/15 A2970 RMK AO2 SLP057 T01670150
Loading
Personal Weather Stations






























Interactive Weather Map New forecast layout! Learn more

10-Day Weather Forecast

Advertisements
Track Severe Weather on mobile